sensor_id;sensor_type;location;lat;lon;timestamp;temperature;humidity
4376;DHT22;2202;50.866;12.750;2024-03-25T00:01:45;4.20;93.50
4376;DHT22;2202;50.866;12.750;2024-03-25T00:04:12;4.20;94.00
4376;DHT22;2202;50.866;12.750;2024-03-25T00:06:39;4.10;94.50
4376;DHT22;2202;50.866;12.750;2024-03-25T00:09:05;4.00;94.50
4376;DHT22;2202;50.866;12.750;2024-03-25T00:11:39;3.90;94.90
4376;DHT22;2202;50.866;12.750;2024-03-25T00:14:05;3.80;95.10
4376;DHT22;2202;50.866;12.750;2024-03-25T00:16:32;3.80;95.70
4376;DHT22;2202;50.866;12.750;2024-03-25T00:18:57;3.70;95.90
4376;DHT22;2202;50.866;12.750;2024-03-25T00:21:25;3.70;96.30
4376;DHT22;2202;50.866;12.750;2024-03-25T00:23:51;3.60;96.30
4376;DHT22;2202;50.866;12.750;2024-03-25T00:26:18;3.50;96.60
4376;DHT22;2202;50.866;12.750;2024-03-25T00:28:44;3.50;97.00
4376;DHT22;2202;50.866;12.750;2024-03-25T00:31:11;3.60;97.20
4376;DHT22;2202;50.866;12.750;2024-03-25T00:33:36;3.60;97.20
4376;DHT22;2202;50.866;12.750;2024-03-25T00:36:04;3.60;97.20
4376;DHT22;2202;50.866;12.750;2024-03-25T00:38:31;3.60;97.20
4376;DHT22;2202;50.866;12.750;2024-03-25T00:40:58;3.60;97.20
4376;DHT22;2202;50.866;12.750;2024-03-25T00:43:23;3.60;97.40
4376;DHT22;2202;50.866;12.750;2024-03-25T00:45:50;3.70;97.20
4376;DHT22;2202;50.866;12.750;2024-03-25T00:48:16;3.70;97.00
4376;DHT22;2202;50.866;12.750;2024-03-25T00:50:43;3.70;97.00
4376;DHT22;2202;50.866;12.750;2024-03-25T00:53:09;3.80;97.10
4376;DHT22;2202;50.866;12.750;2024-03-25T00:55:37;3.80;97.00
4376;DHT22;2202;50.866;12.750;2024-03-25T00:58:03;3.80;96.40
4376;DHT22;2202;50.866;12.750;2024-03-25T01:00:30;3.90;95.90
4376;DHT22;2202;50.866;12.750;2024-03-25T01:02:56;3.90;95.40
4376;DHT22;2202;50.866;12.750;2024-03-25T01:05:23;3.90;95.50
4376;DHT22;2202;50.866;12.750;2024-03-25T01:07:49;3.90;95.50
4376;DHT22;2202;50.866;12.750;2024-03-25T01:10:16;4.00;94.80
4376;DHT22;2202;50.866;12.750;2024-03-25T01:12:43;4.00;94.80
4376;DHT22;2202;50.866;12.750;2024-03-25T01:15:09;4.00;94.70
4376;DHT22;2202;50.866;12.750;2024-03-25T01:17:35;4.00;94.50
4376;DHT22;2202;50.866;12.750;2024-03-25T01:20:03;4.00;94.30
4376;DHT22;2202;50.866;12.750;2024-03-25T01:22:30;4.10;94.30
4376;DHT22;2202;50.866;12.750;2024-03-25T01:24:57;4.10;94.00
4376;DHT22;2202;50.866;12.750;2024-03-25T01:27:22;4.10;94.00
4376;DHT22;2202;50.866;12.750;2024-03-25T01:29:50;4.00;93.60
4376;DHT22;2202;50.866;12.750;2024-03-25T01:32:16;4.10;93.20
4376;DHT22;2202;50.866;12.750;2024-03-25T01:34:43;4.10;93.10
4376;DHT22;2202;50.866;12.750;2024-03-25T01:37:09;4.10;93.30
4376;DHT22;2202;50.866;12.750;2024-03-25T01:39:36;4.00;93.40
4376;DHT22;2202;50.866;12.750;2024-03-25T01:42:03;4.00;93.60
4376;DHT22;2202;50.866;12.750;2024-03-25T01:44:30;4.10;92.70
4376;DHT22;2202;50.866;12.750;2024-03-25T01:46:57;4.10;92.70
4376;DHT22;2202;50.866;12.750;2024-03-25T01:49:24;4.10;92.40
4376;DHT22;2202;50.866;12.750;2024-03-25T01:51:50;4.10;92.50
4376;DHT22;2202;50.866;12.750;2024-03-25T01:54:17;4.10;92.80
4376;DHT22;2202;50.866;12.750;2024-03-25T01:56:45;4.20;92.70
4376;DHT22;2202;50.866;12.750;2024-03-25T01:59:12;4.20;92.60
4376;DHT22;2202;50.866;12.750;2024-03-25T02:01:39;4.10;92.10
4376;DHT22;2202;50.866;12.750;2024-03-25T02:04:07;4.10;92.60
4376;DHT22;2202;50.866;12.750;2024-03-25T02:06:35;4.10;92.40
4376;DHT22;2202;50.866;12.750;2024-03-25T02:09:03;4.20;92.40
4376;DHT22;2202;50.866;12.750;2024-03-25T02:11:29;4.20;92.10
4376;DHT22;2202;50.866;12.750;2024-03-25T02:13:56;4.20;92.20
4376;DHT22;2202;50.866;12.750;2024-03-25T02:16:22;4.20;92.00
4376;DHT22;2202;50.866;12.750;2024-03-25T02:18:50;4.20;92.00
4376;DHT22;2202;50.866;12.750;2024-03-25T02:21:17;4.20;91.90
4376;DHT22;2202;50.866;12.750;2024-03-25T02:23:45;4.20;92.20
4376;DHT22;2202;50.866;12.750;2024-03-25T02:26:13;4.20;92.20
4376;DHT22;2202;50.866;12.750;2024-03-25T02:28:40;4.20;92.30
4376;DHT22;2202;50.866;12.750;2024-03-25T02:31:06;4.20;92.00
4376;DHT22;2202;50.866;12.750;2024-03-25T02:33:33;4.20;92.30
4376;DHT22;2202;50.866;12.750;2024-03-25T02:35:59;4.20;92.60
4376;DHT22;2202;50.866;12.750;2024-03-25T02:38:25;4.20;92.40
4376;DHT22;2202;50.866;12.750;2024-03-25T02:40:51;4.20;92.20
4376;DHT22;2202;50.866;12.750;2024-03-25T02:43:20;4.20;92.20
4376;DHT22;2202;50.866;12.750;2024-03-25T02:45:47;4.20;92.30
4376;DHT22;2202;50.866;12.750;2024-03-25T02:48:13;4.20;91.90
4376;DHT22;2202;50.866;12.750;2024-03-25T02:50:39;4.20;92.00
4376;DHT22;2202;50.866;12.750;2024-03-25T02:53:06;4.20;92.00
4376;DHT22;2202;50.866;12.750;2024-03-25T02:55:32;4.20;92.40
4376;DHT22;2202;50.866;12.750;2024-03-25T02:57:58;4.20;92.30
4376;DHT22;2202;50.866;12.750;2024-03-25T03:00:26;4.10;92.60
4376;DHT22;2202;50.866;12.750;2024-03-25T03:02:52;4.00;93.10
4376;DHT22;2202;50.866;12.750;2024-03-25T03:05:18;4.00;93.40
4376;DHT22;2202;50.866;12.750;2024-03-25T03:07:45;3.90;93.70
4376;DHT22;2202;50.866;12.750;2024-03-25T03:10:11;3.80;94.00
4376;DHT22;2202;50.866;12.750;2024-03-25T03:12:37;3.80;94.50
4376;DHT22;2202;50.866;12.750;2024-03-25T03:15:04;3.80;94.70
4376;DHT22;2202;50.866;12.750;2024-03-25T03:17:32;3.70;94.70
4376;DHT22;2202;50.866;12.750;2024-03-25T03:19:58;3.70;94.90
4376;DHT22;2202;50.866;12.750;2024-03-25T03:22:25;3.60;95.40
4376;DHT22;2202;50.866;12.750;2024-03-25T03:24:51;3.60;95.60
4376;DHT22;2202;50.866;12.750;2024-03-25T03:27:17;3.60;95.60
4376;DHT22;2202;50.866;12.750;2024-03-25T03:29:43;3.50;95.80
4376;DHT22;2202;50.866;12.750;2024-03-25T03:32:10;3.40;96.20
4376;DHT22;2202;50.866;12.750;2024-03-25T03:34:37;3.50;96.50
4376;DHT22;2202;50.866;12.750;2024-03-25T03:37:04;3.50;96.50
4376;DHT22;2202;50.866;12.750;2024-03-25T03:39:30;3.50;96.70
4376;DHT22;2202;50.866;12.750;2024-03-25T03:41:56;3.40;96.90
4376;DHT22;2202;50.866;12.750;2024-03-25T03:44:22;3.40;97.10
4376;DHT22;2202;50.866;12.750;2024-03-25T03:46:49;3.40;97.10
4376;DHT22;2202;50.866;12.750;2024-03-25T03:49:14;3.40;97.30
4376;DHT22;2202;50.866;12.750;2024-03-25T03:51:43;3.40;97.30
4376;DHT22;2202;50.866;12.750;2024-03-25T03:54:08;3.30;97.30
4376;DHT22;2202;50.866;12.750;2024-03-25T03:56:35;3.40;97.40
4376;DHT22;2202;50.866;12.750;2024-03-25T03:59:01;3.30;97.50
4376;DHT22;2202;50.866;12.750;2024-03-25T04:01:27;3.30;97.70
4376;DHT22;2202;50.866;12.750;2024-03-25T04:03:54;3.40;97.50
4376;DHT22;2202;50.866;12.750;2024-03-25T04:06:21;3.40;97.30
4376;DHT22;2202;50.866;12.750;2024-03-25T04:08:48;3.40;97.50
4376;DHT22;2202;50.866;12.750;2024-03-25T04:11:15;3.40;97.40
4376;DHT22;2202;50.866;12.750;2024-03-25T04:13:40;3.40;97.50
4376;DHT22;2202;50.866;12.750;2024-03-25T04:16:08;3.30;97.50
4376;DHT22;2202;50.866;12.750;2024-03-25T04:18:35;3.30;97.40
4376;DHT22;2202;50.866;12.750;2024-03-25T04:21:01;3.20;97.80
4376;DHT22;2202;50.866;12.750;2024-03-25T04:23:27;3.20;98.10
4376;DHT22;2202;50.866;12.750;2024-03-25T04:25:55;3.20;98.40
4376;DHT22;2202;50.866;12.750;2024-03-25T04:28:26;3.20;98.50
4376;DHT22;2202;50.866;12.750;2024-03-25T04:30:53;3.20;98.50
4376;DHT22;2202;50.866;12.750;2024-03-25T04:33:19;3.20;98.40
4376;DHT22;2202;50.866;12.750;2024-03-25T04:35:46;3.20;98.60
4376;DHT22;2202;50.866;12.750;2024-03-25T04:38:12;3.30;98.50
4376;DHT22;2202;50.866;12.750;2024-03-25T04:40:38;3.30;98.30
4376;DHT22;2202;50.866;12.750;2024-03-25T04:43:06;3.30;98.30
4376;DHT22;2202;50.866;12.750;2024-03-25T04:45:32;3.30;98.00
4376;DHT22;2202;50.866;12.750;2024-03-25T04:47:58;3.30;98.00
4376;DHT22;2202;50.866;12.750;2024-03-25T04:50:23;3.30;97.90
4376;DHT22;2202;50.866;12.750;2024-03-25T04:52:49;3.30;97.70
4376;DHT22;2202;50.866;12.750;2024-03-25T04:55:15;3.30;97.90
4376;DHT22;2202;50.866;12.750;2024-03-25T04:57:41;3.30;97.90
4376;DHT22;2202;50.866;12.750;2024-03-25T05:00:10;3.20;98.00
4376;DHT22;2202;50.866;12.750;2024-03-25T05:02:36;3.20;98.00
4376;DHT22;2202;50.866;12.750;2024-03-25T05:05:02;3.20;98.30
4376;DHT22;2202;50.866;12.750;2024-03-25T05:07:28;3.30;98.40
4376;DHT22;2202;50.866;12.750;2024-03-25T05:09:54;3.30;98.40
4376;DHT22;2202;50.866;12.750;2024-03-25T05:12:20;3.30;97.90
4376;DHT22;2202;50.866;12.750;2024-03-25T05:14:46;3.40;98.00
4376;DHT22;2202;50.866;12.750;2024-03-25T05:17:13;3.30;97.70
4376;DHT22;2202;50.866;12.750;2024-03-25T05:19:39;3.40;98.00
4376;DHT22;2202;50.866;12.750;2024-03-25T05:22:04;3.40;97.60
4376;DHT22;2202;50.866;12.750;2024-03-25T05:24:30;3.40;97.70
4376;DHT22;2202;50.866;12.750;2024-03-25T05:26:56;3.40;97.50
4376;DHT22;2202;50.866;12.750;2024-03-25T05:29:22;3.40;97.50
4376;DHT22;2202;50.866;12.750;2024-03-25T05:31:56;3.50;97.20
4376;DHT22;2202;50.866;12.750;2024-03-25T05:34:24;3.50;97.40
4376;DHT22;2202;50.866;12.750;2024-03-25T05:36:50;3.40;97.40
4376;DHT22;2202;50.866;12.750;2024-03-25T05:39:16;3.40;97.40
4376;DHT22;2202;50.866;12.750;2024-03-25T05:41:41;3.40;97.80
4376;DHT22;2202;50.866;12.750;2024-03-25T05:44:07;3.40;97.90
4376;DHT22;2202;50.866;12.750;2024-03-25T05:46:33;3.30;98.20
4376;DHT22;2202;50.866;12.750;2024-03-25T05:49:01;3.40;98.40
4376;DHT22;2202;50.866;12.750;2024-03-25T05:51:29;3.30;98.40
4376;DHT22;2202;50.866;12.750;2024-03-25T05:53:55;3.20;98.20
4376;DHT22;2202;50.866;12.750;2024-03-25T05:56:20;3.00;98.00
4376;DHT22;2202;50.866;12.750;2024-03-25T05:58:46;3.00;98.20
4376;DHT22;2202;50.866;12.750;2024-03-25T06:01:12;3.00;98.30
4376;DHT22;2202;50.866;12.750;2024-03-25T06:03:38;2.90;98.70
4376;DHT22;2202;50.866;12.750;2024-03-25T06:06:04;3.00;99.10
4376;DHT22;2202;50.866;12.750;2024-03-25T06:08:31;3.00;99.10
4376;DHT22;2202;50.866;12.750;2024-03-25T06:11:00;3.00;99.40
4376;DHT22;2202;50.866;12.750;2024-03-25T06:13:26;3.00;99.50
4376;DHT22;2202;50.866;12.750;2024-03-25T06:15:52;3.10;99.50
4376;DHT22;2202;50.866;12.750;2024-03-25T06:18:18;3.10;99.20
4376;DHT22;2202;50.866;12.750;2024-03-25T06:20:44;3.10;99.30
4376;DHT22;2202;50.866;12.750;2024-03-25T06:23:10;3.20;99.40
4376;DHT22;2202;50.866;12.750;2024-03-25T06:25:37;3.30;99.30
4376;DHT22;2202;50.866;12.750;2024-03-25T06:28:04;3.30;99.20
4376;DHT22;2202;50.866;12.750;2024-03-25T06:30:30;3.30;99.10
4376;DHT22;2202;50.866;12.750;2024-03-25T06:33:14;3.30;99.00
4376;DHT22;2202;50.866;12.750;2024-03-25T06:35:58;3.30;98.80
4376;DHT22;2202;50.866;12.750;2024-03-25T06:38:24;3.40;98.20
4376;DHT22;2202;50.866;12.750;2024-03-25T06:40:51;3.40;98.20
4376;DHT22;2202;50.866;12.750;2024-03-25T06:43:17;3.40;98.10
4376;DHT22;2202;50.866;12.750;2024-03-25T06:45:43;3.50;98.00
4376;DHT22;2202;50.866;12.750;2024-03-25T06:48:09;3.50;97.70
4376;DHT22;2202;50.866;12.750;2024-03-25T06:50:35;3.50;97.60
4376;DHT22;2202;50.866;12.750;2024-03-25T06:53:01;3.70;98.00
4376;DHT22;2202;50.866;12.750;2024-03-25T06:55:27;3.70;97.70
4376;DHT22;2202;50.866;12.750;2024-03-25T06:57:54;3.80;97.30
4376;DHT22;2202;50.866;12.750;2024-03-25T07:00:20;3.90;97.20
4376;DHT22;2202;50.866;12.750;2024-03-25T07:02:46;3.90;96.90
4376;DHT22;2202;50.866;12.750;2024-03-25T07:05:12;3.90;96.20
4376;DHT22;2202;50.866;12.750;2024-03-25T07:07:37;3.80;95.80
4376;DHT22;2202;50.866;12.750;2024-03-25T07:10:04;3.90;96.40
4376;DHT22;2202;50.866;12.750;2024-03-25T07:12:30;3.90;96.50
4376;DHT22;2202;50.866;12.750;2024-03-25T07:14:57;3.90;96.30
4376;DHT22;2202;50.866;12.750;2024-03-25T07:17:23;3.80;95.90
4376;DHT22;2202;50.866;12.750;2024-03-25T07:19:49;3.90;96.60
4376;DHT22;2202;50.866;12.750;2024-03-25T07:22:15;3.90;96.30
4376;DHT22;2202;50.866;12.750;2024-03-25T07:24:41;4.00;96.20
4376;DHT22;2202;50.866;12.750;2024-03-25T07:27:07;4.00;96.60
4376;DHT22;2202;50.866;12.750;2024-03-25T07:29:32;4.00;95.90
4376;DHT22;2202;50.866;12.750;2024-03-25T07:32:00;4.10;96.10
4376;DHT22;2202;50.866;12.750;2024-03-25T07:34:26;4.20;95.70
4376;DHT22;2202;50.866;12.750;2024-03-25T07:36:52;4.30;95.40
4376;DHT22;2202;50.866;12.750;2024-03-25T07:39:17;4.30;94.50
4376;DHT22;2202;50.866;12.750;2024-03-25T07:41:43;4.30;95.00
4376;DHT22;2202;50.866;12.750;2024-03-25T07:44:09;4.30;94.90
4376;DHT22;2202;50.866;12.750;2024-03-25T07:46:35;4.40;94.90
4376;DHT22;2202;50.866;12.750;2024-03-25T07:49:02;4.60;95.00
4376;DHT22;2202;50.866;12.750;2024-03-25T07:51:28;4.50;93.90
4376;DHT22;2202;50.866;12.750;2024-03-25T07:53:54;4.50;93.50
4376;DHT22;2202;50.866;12.750;2024-03-25T07:56:20;4.60;93.40
4376;DHT22;2202;50.866;12.750;2024-03-25T07:58:46;4.70;94.00
4376;DHT22;2202;50.866;12.750;2024-03-25T08:01:11;4.70;93.20
4376;DHT22;2202;50.866;12.750;2024-03-25T08:03:37;4.70;92.70
4376;DHT22;2202;50.866;12.750;2024-03-25T08:06:05;4.60;93.80
4376;DHT22;2202;50.866;12.750;2024-03-25T08:08:31;4.80;94.40
4376;DHT22;2202;50.866;12.750;2024-03-25T08:10:56;4.90;92.90
4376;DHT22;2202;50.866;12.750;2024-03-25T08:13:22;4.80;92.80
4376;DHT22;2202;50.866;12.750;2024-03-25T08:15:48;4.60;92.40
4376;DHT22;2202;50.866;12.750;2024-03-25T08:18:14;4.60;93.20
4376;DHT22;2202;50.866;12.750;2024-03-25T08:20:40;4.60;92.80
4376;DHT22;2202;50.866;12.750;2024-03-25T08:23:07;4.70;93.60
4376;DHT22;2202;50.866;12.750;2024-03-25T08:25:33;4.50;93.80
4376;DHT22;2202;50.866;12.750;2024-03-25T08:27:59;4.40;94.50
4376;DHT22;2202;50.866;12.750;2024-03-25T08:30:25;4.20;95.20
4376;DHT22;2202;50.866;12.750;2024-03-25T08:32:51;3.80;95.50
4376;DHT22;2202;50.866;12.750;2024-03-25T08:35:17;3.70;96.70
4376;DHT22;2202;50.866;12.750;2024-03-25T08:37:42;3.60;97.70
4376;DHT22;2202;50.866;12.750;2024-03-25T08:40:10;3.80;97.80
4376;DHT22;2202;50.866;12.750;2024-03-25T08:42:36;4.00;97.70
4376;DHT22;2202;50.866;12.750;2024-03-25T08:45:02;4.30;98.50
4376;DHT22;2202;50.866;12.750;2024-03-25T08:47:28;4.70;98.10
4376;DHT22;2202;50.866;12.750;2024-03-25T08:49:54;4.90;96.70
4376;DHT22;2202;50.866;12.750;2024-03-25T08:52:20;5.10;96.00
4376;DHT22;2202;50.866;12.750;2024-03-25T08:54:46;5.20;95.50
4376;DHT22;2202;50.866;12.750;2024-03-25T08:57:13;5.50;94.50
4376;DHT22;2202;50.866;12.750;2024-03-25T08:59:39;5.80;95.30
4376;DHT22;2202;50.866;12.750;2024-03-25T09:02:05;6.10;93.90
4376;DHT22;2202;50.866;12.750;2024-03-25T09:04:31;5.90;90.80
4376;DHT22;2202;50.866;12.750;2024-03-25T09:06:57;5.70;92.30
4376;DHT22;2202;50.866;12.750;2024-03-25T09:09:23;5.60;91.70
4376;DHT22;2202;50.866;12.750;2024-03-25T09:12:07;5.50;89.60
4376;DHT22;2202;50.866;12.750;2024-03-25T09:14:34;5.40;90.60
4376;DHT22;2202;50.866;12.750;2024-03-25T09:17:00;5.40;90.50
4376;DHT22;2202;50.866;12.750;2024-03-25T09:19:26;5.30;91.20
4376;DHT22;2202;50.866;12.750;2024-03-25T09:21:52;5.10;90.70
4376;DHT22;2202;50.866;12.750;2024-03-25T09:24:17;5.10;92.30
4376;DHT22;2202;50.866;12.750;2024-03-25T09:26:43;4.80;91.10
4376;DHT22;2202;50.866;12.750;2024-03-25T09:29:09;4.50;91.70
4376;DHT22;2202;50.866;12.750;2024-03-25T09:31:37;4.60;92.50
4376;DHT22;2202;50.866;12.750;2024-03-25T09:34:03;4.80;92.50
4376;DHT22;2202;50.866;12.750;2024-03-25T09:36:28;4.90;92.50
4376;DHT22;2202;50.866;12.750;2024-03-25T09:38:54;5.00;92.50
4376;DHT22;2202;50.866;12.750;2024-03-25T09:41:20;5.00;91.80
4376;DHT22;2202;50.866;12.750;2024-03-25T09:43:48;5.20;92.20
4376;DHT22;2202;50.866;12.750;2024-03-25T09:46:14;5.30;92.90
4376;DHT22;2202;50.866;12.750;2024-03-25T09:48:42;5.70;92.80
4376;DHT22;2202;50.866;12.750;2024-03-25T09:51:09;5.90;91.60
4376;DHT22;2202;50.866;12.750;2024-03-25T09:53:35;5.90;90.70
4376;DHT22;2202;50.866;12.750;2024-03-25T09:56:01;5.70;90.00
4376;DHT22;2202;50.866;12.750;2024-03-25T09:58:27;5.50;90.70
4376;DHT22;2202;50.866;12.750;2024-03-25T10:00:54;5.30;90.90
4376;DHT22;2202;50.866;12.750;2024-03-25T10:03:20;5.30;91.50
4376;DHT22;2202;50.866;12.750;2024-03-25T10:05:47;5.30;92.10
4376;DHT22;2202;50.866;12.750;2024-03-25T10:08:13;5.50;91.00
4376;DHT22;2202;50.866;12.750;2024-03-25T10:10:39;5.60;87.80
4376;DHT22;2202;50.866;12.750;2024-03-25T10:13:05;5.60;86.80
4376;DHT22;2202;50.866;12.750;2024-03-25T10:15:31;5.70;87.20
4376;DHT22;2202;50.866;12.750;2024-03-25T10:17:58;5.70;85.80
4376;DHT22;2202;50.866;12.750;2024-03-25T10:20:23;5.70;86.20
4376;DHT22;2202;50.866;12.750;2024-03-25T10:22:51;5.70;85.80
4376;DHT22;2202;50.866;12.750;2024-03-25T10:25:22;5.60;86.00
4376;DHT22;2202;50.866;12.750;2024-03-25T10:27:54;5.60;85.20
4376;DHT22;2202;50.866;12.750;2024-03-25T10:30:21;5.50;83.80
4376;DHT22;2202;50.866;12.750;2024-03-25T10:32:57;5.40;83.80
4376;DHT22;2202;50.866;12.750;2024-03-25T10:35:25;5.50;84.60
4376;DHT22;2202;50.866;12.750;2024-03-25T10:37:55;5.70;85.40
4376;DHT22;2202;50.866;12.750;2024-03-25T10:40:22;5.90;83.80
4376;DHT22;2202;50.866;12.750;2024-03-25T10:42:52;5.90;83.00
4376;DHT22;2202;50.866;12.750;2024-03-25T10:45:17;5.90;82.40
4376;DHT22;2202;50.866;12.750;2024-03-25T10:47:43;6.10;83.60
4376;DHT22;2202;50.866;12.750;2024-03-25T10:50:12;6.10;81.60
4376;DHT22;2202;50.866;12.750;2024-03-25T10:52:41;6.20;80.00
4376;DHT22;2202;50.866;12.750;2024-03-25T10:55:10;6.30;80.40
4376;DHT22;2202;50.866;12.750;2024-03-25T10:57:36;6.30;81.20
4376;DHT22;2202;50.866;12.750;2024-03-25T11:00:03;6.60;80.40
4376;DHT22;2202;50.866;12.750;2024-03-25T11:02:30;6.70;78.60
4376;DHT22;2202;50.866;12.750;2024-03-25T11:04:57;6.50;76.60
4376;DHT22;2202;50.866;12.750;2024-03-25T11:07:30;6.30;74.80
4376;DHT22;2202;50.866;12.750;2024-03-25T11:10:03;6.30;76.80
4376;DHT22;2202;50.866;12.750;2024-03-25T11:12:35;6.30;76.60
4376;DHT22;2202;50.866;12.750;2024-03-25T11:15:02;6.50;79.60
4376;DHT22;2202;50.866;12.750;2024-03-25T11:17:29;6.60;74.40
4376;DHT22;2202;50.866;12.750;2024-03-25T11:20:06;6.80;76.20
4376;DHT22;2202;50.866;12.750;2024-03-25T11:22:32;7.00;74.20
4376;DHT22;2202;50.866;12.750;2024-03-25T11:25:05;6.80;74.20
4376;DHT22;2202;50.866;12.750;2024-03-25T11:27:36;6.60;75.60
4376;DHT22;2202;50.866;12.750;2024-03-25T11:30:05;6.50;74.80
4376;DHT22;2202;50.866;12.750;2024-03-25T11:32:43;6.30;76.40
4376;DHT22;2202;50.866;12.750;2024-03-25T11:35:09;6.30;76.80
4376;DHT22;2202;50.866;12.750;2024-03-25T11:37:39;6.40;76.60
4376;DHT22;2202;50.866;12.750;2024-03-25T11:40:06;6.40;75.80
4376;DHT22;2202;50.866;12.750;2024-03-25T11:42:34;6.40;73.60
4376;DHT22;2202;50.866;12.750;2024-03-25T11:45:00;6.40;75.00
4376;DHT22;2202;50.866;12.750;2024-03-25T11:47:27;6.40;72.40
4376;DHT22;2202;50.866;12.750;2024-03-25T11:49:53;6.40;74.20
4376;DHT22;2202;50.866;12.750;2024-03-25T11:52:18;6.50;74.60
4376;DHT22;2202;50.866;12.750;2024-03-25T11:54:44;6.70;74.60
4376;DHT22;2202;50.866;12.750;2024-03-25T11:57:10;6.80;72.60
4376;DHT22;2202;50.866;12.750;2024-03-25T11:59:38;6.90;76.60
4376;DHT22;2202;50.866;12.750;2024-03-25T12:02:06;6.90;71.80
4376;DHT22;2202;50.866;12.750;2024-03-25T12:04:32;7.00;73.00
4376;DHT22;2202;50.866;12.750;2024-03-25T12:06:58;7.00;70.40
4376;DHT22;2202;50.866;12.750;2024-03-25T12:09:23;7.00;72.20
4376;DHT22;2202;50.866;12.750;2024-03-25T12:12:08;7.30;73.60
4376;DHT22;2202;50.866;12.750;2024-03-25T12:14:34;7.50;70.00
4376;DHT22;2202;50.866;12.750;2024-03-25T12:17:01;7.40;64.20
4376;DHT22;2202;50.866;12.750;2024-03-25T12:19:27;7.40;64.40
4376;DHT22;2202;50.866;12.750;2024-03-25T12:21:59;7.30;64.60
4376;DHT22;2202;50.866;12.750;2024-03-25T12:24:26;7.30;66.80
4376;DHT22;2202;50.866;12.750;2024-03-25T12:26:52;7.50;67.60
4376;DHT22;2202;50.866;12.750;2024-03-25T12:29:17;7.40;66.20
4376;DHT22;2202;50.866;12.750;2024-03-25T12:31:53;7.40;67.40
4376;DHT22;2202;50.866;12.750;2024-03-25T12:34:21;7.60;67.20
4376;DHT22;2202;50.866;12.750;2024-03-25T12:36:48;7.90;64.20
4376;DHT22;2202;50.866;12.750;2024-03-25T12:39:17;8.20;64.40
4376;DHT22;2202;50.866;12.750;2024-03-25T12:41:42;8.50;62.00
4376;DHT22;2202;50.866;12.750;2024-03-25T12:44:11;8.40;58.70
4376;DHT22;2202;50.866;12.750;2024-03-25T12:46:37;8.50;63.40
4376;DHT22;2202;50.866;12.750;2024-03-25T12:49:03;8.50;60.60
4376;DHT22;2202;50.866;12.750;2024-03-25T12:51:30;8.50;61.00
4376;DHT22;2202;50.866;12.750;2024-03-25T12:53:56;8.60;59.90
4376;DHT22;2202;50.866;12.750;2024-03-25T12:56:22;8.30;58.70
4376;DHT22;2202;50.866;12.750;2024-03-25T12:58:48;8.10;58.90
4376;DHT22;2202;50.866;12.750;2024-03-25T13:01:14;8.20;61.60
4376;DHT22;2202;50.866;12.750;2024-03-25T13:03:40;8.20;60.80
4376;DHT22;2202;50.866;12.750;2024-03-25T13:06:06;8.20;59.00
4376;DHT22;2202;50.866;12.750;2024-03-25T13:08:33;8.00;60.20
4376;DHT22;2202;50.866;12.750;2024-03-25T13:10:59;8.10;58.90
4376;DHT22;2202;50.866;12.750;2024-03-25T13:13:25;8.20;63.80
4376;DHT22;2202;50.866;12.750;2024-03-25T13:15:51;8.50;56.20
4376;DHT22;2202;50.866;12.750;2024-03-25T13:18:17;8.40;59.60
4376;DHT22;2202;50.866;12.750;2024-03-25T13:20:43;8.60;59.90
4376;DHT22;2202;50.866;12.750;2024-03-25T13:23:09;8.50;55.70
4376;DHT22;2202;50.866;12.750;2024-03-25T13:25:36;8.40;54.30
4376;DHT22;2202;50.866;12.750;2024-03-25T13:28:03;8.30;55.10
4376;DHT22;2202;50.866;12.750;2024-03-25T13:30:30;8.30;55.00
4376;DHT22;2202;50.866;12.750;2024-03-25T13:32:57;8.40;53.50
4376;DHT22;2202;50.866;12.750;2024-03-25T13:35:23;8.10;50.30
4376;DHT22;2202;50.866;12.750;2024-03-25T13:37:48;7.80;53.20
4376;DHT22;2202;50.866;12.750;2024-03-25T13:40:14;7.80;53.70
4376;DHT22;2202;50.866;12.750;2024-03-25T13:42:42;7.60;53.40
4376;DHT22;2202;50.866;12.750;2024-03-25T13:45:08;7.90;53.20
4376;DHT22;2202;50.866;12.750;2024-03-25T13:47:34;8.20;51.90
4376;DHT22;2202;50.866;12.750;2024-03-25T13:50:03;8.50;50.00
4376;DHT22;2202;50.866;12.750;2024-03-25T13:52:29;8.50;48.90
4376;DHT22;2202;50.866;12.750;2024-03-25T13:54:55;8.40;48.40
4376;DHT22;2202;50.866;12.750;2024-03-25T13:57:21;8.50;50.70
4376;DHT22;2202;50.866;12.750;2024-03-25T13:59:49;8.90;51.60
4376;DHT22;2202;50.866;12.750;2024-03-25T14:02:15;9.10;46.30
4376;DHT22;2202;50.866;12.750;2024-03-25T14:04:41;8.90;47.70
4376;DHT22;2202;50.866;12.750;2024-03-25T14:07:07;8.60;47.20
4376;DHT22;2202;50.866;12.750;2024-03-25T14:09:33;8.60;49.10
4376;DHT22;2202;50.866;12.750;2024-03-25T14:11:59;8.70;48.80
4376;DHT22;2202;50.866;12.750;2024-03-25T14:14:25;8.70;48.00
4376;DHT22;2202;50.866;12.750;2024-03-25T14:16:52;8.80;48.20
4376;DHT22;2202;50.866;12.750;2024-03-25T14:19:18;8.90;48.60
4376;DHT22;2202;50.866;12.750;2024-03-25T14:21:44;8.70;48.00
4376;DHT22;2202;50.866;12.750;2024-03-25T14:24:09;8.60;50.00
4376;DHT22;2202;50.866;12.750;2024-03-25T14:26:35;8.30;50.50
4376;DHT22;2202;50.866;12.750;2024-03-25T14:29:01;8.30;50.90
4376;DHT22;2202;50.866;12.750;2024-03-25T14:31:27;8.20;52.10
4376;DHT22;2202;50.866;12.750;2024-03-25T14:33:55;8.30;53.90
4376;DHT22;2202;50.866;12.750;2024-03-25T14:36:21;8.50;53.50
4376;DHT22;2202;50.866;12.750;2024-03-25T14:38:47;8.50;53.50
4376;DHT22;2202;50.866;12.750;2024-03-25T14:41:18;8.30;56.00
4376;DHT22;2202;50.866;12.750;2024-03-25T14:43:44;8.30;56.00
4376;DHT22;2202;50.866;12.750;2024-03-25T14:46:09;8.40;56.40
4376;DHT22;2202;50.866;12.750;2024-03-25T14:48:35;8.50;53.50
4376;DHT22;2202;50.866;12.750;2024-03-25T14:51:03;8.50;54.80
4376;DHT22;2202;50.866;12.750;2024-03-25T14:53:29;8.60;57.80
4376;DHT22;2202;50.866;12.750;2024-03-25T14:55:55;8.60;54.10
4376;DHT22;2202;50.866;12.750;2024-03-25T14:58:20;8.70;51.60
4376;DHT22;2202;50.866;12.750;2024-03-25T15:00:46;8.90;52.30
4376;DHT22;2202;50.866;12.750;2024-03-25T15:03:12;8.80;51.40
4376;DHT22;2202;50.866;12.750;2024-03-25T15:05:38;9.00;54.10
4376;DHT22;2202;50.866;12.750;2024-03-25T15:08:06;9.00;50.20
4376;DHT22;2202;50.866;12.750;2024-03-25T15:10:33;9.00;51.10
4376;DHT22;2202;50.866;12.750;2024-03-25T15:12:59;9.00;49.50
4376;DHT22;2202;50.866;12.750;2024-03-25T15:15:25;9.10;51.40
4376;DHT22;2202;50.866;12.750;2024-03-25T15:17:51;9.20;49.80
4376;DHT22;2202;50.866;12.750;2024-03-25T15:20:17;9.00;48.60
4376;DHT22;2202;50.866;12.750;2024-03-25T15:22:43;9.20;51.40
4376;DHT22;2202;50.866;12.750;2024-03-25T15:25:10;9.50;50.00
4376;DHT22;2202;50.866;12.750;2024-03-25T15:27:36;9.40;46.30
4376;DHT22;2202;50.866;12.750;2024-03-25T15:30:02;9.10;45.40
4376;DHT22;2202;50.866;12.750;2024-03-25T15:32:28;8.80;48.00
4376;DHT22;2202;50.866;12.750;2024-03-25T15:34:54;9.00;51.40
4376;DHT22;2202;50.866;12.750;2024-03-25T15:37:20;8.90;47.50
4376;DHT22;2202;50.866;12.750;2024-03-25T15:39:46;9.00;49.30
4376;DHT22;2202;50.866;12.750;2024-03-25T15:42:13;8.90;46.40
4376;DHT22;2202;50.866;12.750;2024-03-25T15:44:39;9.10;47.50
4376;DHT22;2202;50.866;12.750;2024-03-25T15:47:05;9.20;43.60
4376;DHT22;2202;50.866;12.750;2024-03-25T15:49:31;9.40;48.00
4376;DHT22;2202;50.866;12.750;2024-03-25T15:51:57;9.50;46.80
4376;DHT22;2202;50.866;12.750;2024-03-25T15:54:23;9.70;47.50
4376;DHT22;2202;50.866;12.750;2024-03-25T15:56:49;9.80;45.40
4376;DHT22;2202;50.866;12.750;2024-03-25T15:59:16;9.70;45.40